Time;durP1;ratioP1;P1;durP2;ratioP2;P2;SDS_P1;SDS_P2;PMS_P1;PMS_P2;Temp;Humidity;BMP_temperature;BMP_pressure;BME280_temperature;BME280_humidity;BME280_pressure;Samples;Min_cycle;Max_cycle;Signal;HPM_P1;HPM_P2
2022/01/09 00:01:44;;;;;;;;;84.00;67.33;;;;;;;;5136011;27;8778;-79
2022/01/09 00:04:09;;;;;;;;;73.00;60.50;;;;;;;;5136552;27;8920;-79
2022/01/09 00:06:37;;;;;;;;;75.67;60.67;;;;;;;;5135893;27;9608;-80
2022/01/09 00:09:02;;;;;;;;;87.40;72.40;;;;;;;;5117648;27;8805;-78
2022/01/09 00:11:28;;;;;;;;;84.33;70.00;;;;;;;;5136324;27;8806;-78
2022/01/09 00:13:54;;;;;;;;;82.67;68.33;;;;;;;;5135983;27;8791;-79
2022/01/09 00:16:20;;;;;;;;;77.00;63.80;;;;;;;;5136212;27;8803;-78
2022/01/09 00:18:46;;;;;;;;;80.00;66.50;;;;;;;;5135715;27;8770;-78
2022/01/09 00:21:14;;;;;;;;;81.40;66.80;;;;;;;;5135584;27;8787;-78
2022/01/09 00:23:42;;;;;;;;;81.75;67.50;;;;;;;;5116861;27;8790;-78
2022/01/09 00:26:08;;;;;;;;;87.40;72.60;;;;;;;;5136137;27;8791;-78
2022/01/09 00:28:34;;;;;;;;;80.00;64.80;;;;;;;;5135887;27;8814;-79
2022/01/09 00:30:59;;;;;;;;;90.80;78.20;;;;;;;;5135673;27;8985;-78
2022/01/09 00:33:24;;;;;;;;;66.50;56.50;;;;;;;;5135859;27;8803;-78
2022/01/09 00:35:50;;;;;;;;;84.75;68.00;;;;;;;;5134942;27;8827;-78
2022/01/09 00:38:18;;;;;;;;;84.75;68.50;;;;;;;;5117147;27;8857;-78
2022/01/09 00:40:43;;;;;;;;;74.00;62.00;;;;;;;;5134300;27;9788;-78
2022/01/09 00:43:09;;;;;;;;;85.75;71.00;;;;;;;;5135746;27;8975;-78
2022/01/09 00:45:35;;;;;;;;;84.60;69.00;;;;;;;;5135879;27;8790;-78
2022/01/09 00:48:01;;;;;;;;;79.25;65.25;;;;;;;;5135201;27;8818;-78
2022/01/09 00:50:28;;;;;;;;;87.75;72.50;;;;;;;;5135512;27;8837;-78
2022/01/09 00:52:54;;;;;;;;;74.40;61.80;;;;;;;;5135045;27;8786;-78
2022/01/09 00:55:19;;;;;;;;;88.25;73.50;;;;;;;;5135710;27;8889;-78
2022/01/09 00:57:44;;;;;;;;;94.75;84.50;;;;;;;;5134893;27;8817;-77
2022/01/09 01:00:11;;;;;;;;;81.50;67.25;;;;;;;;5135644;27;8903;-78
2022/01/09 01:02:36;;;;;;;;;82.75;67.75;;;;;;;;5135496;27;8810;-78
2022/01/09 01:05:02;;;;;;;;;89.00;73.00;;;;;;;;5134716;27;8905;-78
2022/01/09 01:07:28;;;;;;;;;75.80;62.60;;;;;;;;5135427;27;8798;-78
2022/01/09 01:09:56;;;;;;;;;70.50;59.25;;;;;;;;5134858;27;8833;-78
2022/01/09 01:12:22;;;;;;;;;76.00;62.80;;;;;;;;5116747;27;9696;-76
2022/01/09 01:14:47;;;;;;;;;69.67;58.33;;;;;;;;5116522;27;8791;-78
2022/01/09 01:17:13;;;;;;;;;78.00;64.33;;;;;;;;5116597;27;8814;-78
2022/01/09 01:19:41;;;;;;;;;71.40;58.40;;;;;;;;5116179;27;9261;-79
2022/01/09 01:22:07;;;;;;;;;63.80;54.80;;;;;;;;5116693;27;8809;-78
2022/01/09 01:24:35;;;;;;;;;64.50;55.00;;;;;;;;5135199;27;8759;-78
2022/01/09 01:27:01;;;;;;;;;69.00;57.80;;;;;;;;5116037;27;8826;-78
2022/01/09 01:29:29;;;;;;;;;81.50;66.25;;;;;;;;5135063;27;8806;-78
2022/01/09 01:31:54;;;;;;;;;70.40;59.40;;;;;;;;5134652;27;8775;-78
2022/01/09 01:34:22;;;;;;;;;80.75;66.00;;;;;;;;5116149;27;8995;-78
2022/01/09 01:36:47;;;;;;;;;77.50;63.50;;;;;;;;5134628;27;8971;-77
2022/01/09 01:39:13;;;;;;;;;79.67;64.67;;;;;;;;5135032;27;8802;-77
2022/01/09 01:41:40;;;;;;;;;70.67;60.67;;;;;;;;5135035;27;8838;-77
2022/01/09 01:44:15;;;;;;;;;116.40;115.00;;;;;;;;5115981;27;8810;-78
2022/01/09 01:46:40;;;;;;;;;84.40;69.80;;;;;;;;5134500;27;8922;-77
2022/01/09 01:49:06;;;;;;;;;80.00;66.00;;;;;;;;5133911;27;8941;-77
2022/01/09 01:51:34;;;;;;;;;90.50;76.00;;;;;;;;5134505;27;8870;-77
2022/01/09 01:54:02;;;;;;;;;87.60;70.80;;;;;;;;5134389;27;8783;-78
2022/01/09 01:56:27;;;;;;;;;89.75;74.00;;;;;;;;5134518;27;8799;-78
2022/01/09 01:58:54;;;;;;;;;105.00;101.25;;;;;;;;5134262;27;11544;-78
2022/01/09 02:01:20;;;;;;;;;106.80;105.40;;;;;;;;5134513;27;8923;-81
2022/01/09 02:03:45;;;;;;;;;105.25;99.50;;;;;;;;5134262;27;8902;-82
2022/01/09 02:06:11;;;;;;;;;111.25;109.75;;;;;;;;5133982;27;9187;-83
2022/01/09 02:08:36;;;;;;;;;133.75;133.75;;;;;;;;5134896;27;8813;-83
2022/01/09 02:11:03;;;;;;;;;142.83;142.83;;;;;;;;5133877;27;8834;-82
2022/01/09 02:13:31;;;;;;;;;151.60;149.40;;;;;;;;5134612;27;8841;-82
2022/01/09 02:16:01;;;;;;;;;175.33;172.83;;;;;;;;5133574;27;9825;-81
2022/01/09 02:18:26;;;;;;;;;148.80;147.40;;;;;;;;5134091;27;8913;-82
2022/01/09 02:20:52;;;;;;;;;155.80;152.80;;;;;;;;5133564;27;8817;-80
2022/01/09 02:23:18;;;;;;;;;104.00;99.00;;;;;;;;5134002;27;8798;-81
2022/01/09 02:25:47;;;;;;;;;157.80;157.20;;;;;;;;5133982;27;8805;-80
2022/01/09 02:28:16;;;;;;;;;161.00;161.00;;;;;;;;5133892;27;8791;-83
2022/01/09 02:30:42;;;;;;;;;143.33;143.00;;;;;;;;5134881;27;8779;-82
2022/01/09 02:33:09;;;;;;;;;171.40;168.80;;;;;;;;5135965;27;9733;-82
2022/01/09 02:35:35;;;;;;;;;151.00;149.20;;;;;;;;5117662;27;8987;-82
2022/01/09 02:38:02;;;;;;;;;173.83;173.83;;;;;;;;5133603;27;8909;-81
2022/01/09 02:40:27;;;;;;;;;148.75;148.25;;;;;;;;5133744;27;8890;-80
2022/01/09 02:42:56;;;;;;;;;161.25;160.75;;;;;;;;5133597;27;11526;-80
2022/01/09 02:45:23;;;;;;;;;183.80;183.80;;;;;;;;5112887;27;8806;-81
2022/01/09 02:47:50;;;;;;;;;110.17;108.67;;;;;;;;5133509;27;8818;-81
2022/01/09 02:52:52;;;;;;;;;109.40;106.80;;;;;;;;5133623;27;8779;-81
2022/01/09 02:55:18;;;;;;;;;99.75;89.25;;;;;;;;5133517;27;8834;-81
2022/01/09 02:57:50;;;;;;;;;109.00;103.50;;;;;;;;5133260;27;8908;-81
2022/01/09 03:00:25;;;;;;;;;89.25;73.25;;;;;;;;5122669;27;8767;-82
2022/01/09 03:02:51;;;;;;;;;104.50;97.75;;;;;;;;5137289;27;8807;-81
2022/01/09 03:05:16;;;;;;;;;93.75;82.25;;;;;;;;5137069;27;8878;-81
2022/01/09 03:07:43;;;;;;;;;100.80;92.60;;;;;;;;5136859;27;8923;-81
2022/01/09 03:10:12;;;;;;;;;93.00;79.80;;;;;;;;5137280;27;8771;-81
2022/01/09 03:12:40;;;;;;;;;89.67;74.67;;;;;;;;5118551;27;8866;-80
2022/01/09 03:15:06;;;;;;;;;54.00;48.00;;;;;;;;5137474;27;9899;-81
2022/01/09 03:17:31;;;;;;;;;95.75;84.75;;;;;;;;5137135;27;8783;-81
2022/01/09 03:19:57;;;;;;;;;94.00;79.40;;;;;;;;5136425;27;9533;-81
2022/01/09 03:22:24;;;;;;;;;94.00;81.75;;;;;;;;5137052;27;8887;-81
2022/01/09 03:24:52;;;;;;;;;80.00;66.80;;;;;;;;5136442;27;8798;-81
2022/01/09 03:27:21;;;;;;;;;89.40;73.80;;;;;;;;5136761;27;8802;-81
2022/01/09 03:29:46;;;;;;;;;93.20;80.20;;;;;;;;5136757;27;10882;-81
2022/01/09 03:32:11;;;;;;;;;92.00;79.00;;;;;;;;5136979;27;8811;-81
2022/01/09 03:34:39;;;;;;;;;92.75;79.50;;;;;;;;5136769;27;8822;-80
2022/01/09 03:37:07;;;;;;;;;87.00;72.75;;;;;;;;5136739;27;8872;-80
2022/01/09 03:39:33;;;;;;;;;88.60;72.60;;;;;;;;5118274;27;8794;-80
2022/01/09 03:42:01;;;;;;;;;88.50;71.50;;;;;;;;5136506;27;8775;-80
2022/01/09 03:44:26;;;;;;;;;73.75;60.75;;;;;;;;5136714;27;11577;-80
2022/01/09 03:46:52;;;;;;;;;90.25;74.50;;;;;;;;5136175;27;9234;-80
2022/01/09 03:49:17;;;;;;;;;90.80;77.40;;;;;;;;5136568;27;8844;-81
2022/01/09 03:51:45;;;;;;;;;119.50;119.50;;;;;;;;5136320;27;9698;-82
2022/01/09 03:54:10;;;;;;;;;104.80;101.20;;;;;;;;5136826;27;8801;-83
2022/01/09 03:56:44;;;;;;;;;184.60;184.00;;;;;;;;5135910;27;8850;-84
2022/01/09 03:59:10;;;;;;;;;193.00;192.33;;;;;;;;5117697;27;8821;-83
2022/01/09 04:01:35;;;;;;;;;171.50;171.50;;;;;;;;5117566;27;8786;-84
2022/01/09 04:04:00;;;;;;;;;131.40;129.60;;;;;;;;5117460;27;8929;-84
2022/01/09 04:06:26;;;;;;;;;163.60;163.00;;;;;;;;5135753;27;8849;-83
2022/01/09 04:08:52;;;;;;;;;174.80;174.80;;;;;;;;5117260;27;8818;-83
2022/01/09 04:11:26;;;;;;;;;200.00;200.00;;;;;;;;5135340;27;8825;-83
2022/01/09 04:13:52;;;;;;;;;199.17;199.00;;;;;;;;5135974;27;8786;-83
2022/01/09 04:16:17;;;;;;;;;195.20;194.20;;;;;;;;5135925;27;8826;-82
2022/01/09 04:18:46;;;;;;;;;209.75;209.75;;;;;;;;5135467;27;8895;-82
2022/01/09 04:21:11;;;;;;;;;222.33;220.67;;;;;;;;5135186;27;11536;-81
2022/01/09 04:23:39;;;;;;;;;209.20;209.20;;;;;;;;5136537;27;8810;-81
2022/01/09 04:26:08;;;;;;;;;199.75;198.75;;;;;;;;5137446;27;8783;-81
2022/01/09 04:28:33;;;;;;;;;212.20;210.60;;;;;;;;5135854;27;8774;-81
2022/01/09 04:30:58;;;;;;;;;213.60;213.60;;;;;;;;5135563;27;8818;-82
2022/01/09 04:33:27;;;;;;;;;222.00;219.00;;;;;;;;5117240;27;8826;-81
2022/01/09 04:35:55;;;;;;;;;219.00;217.83;;;;;;;;5134865;27;8775;-81
2022/01/09 04:38:20;;;;;;;;;239.67;238.50;;;;;;;;5136153;27;8794;-81
2022/01/09 04:40:45;;;;;;;;;238.40;236.00;;;;;;;;5116145;27;8849;-81
2022/01/09 04:43:13;;;;;;;;;231.25;230.75;;;;;;;;5135793;27;8802;-81
2022/01/09 04:45:38;;;;;;;;;217.00;216.33;;;;;;;;5135233;27;8786;-81
2022/01/09 04:48:09;;;;;;;;;237.60;237.00;;;;;;;;5135226;27;8911;-81
2022/01/09 04:50:36;;;;;;;;;182.60;182.60;;;;;;;;5116607;27;8799;-81
2022/01/09 04:53:06;;;;;;;;;212.33;211.00;;;;;;;;5135383;27;8795;-81
2022/01/09 04:55:35;;;;;;;;;171.50;171.33;;;;;;;;5135292;27;8795;-81
2022/01/09 04:58:00;;;;;;;;;230.00;230.00;;;;;;;;5134786;27;8802;-81
2022/01/09 05:00:29;;;;;;;;;183.25;183.25;;;;;;;;5135615;27;10628;-81
2022/01/09 05:02:56;;;;;;;;;201.00;198.20;;;;;;;;5134995;27;8867;-82
2022/01/09 05:05:21;;;;;;;;;221.00;221.00;;;;;;;;5135256;27;8771;-83
2022/01/09 05:07:47;;;;;;;;;204.40;204.40;;;;;;;;5134853;27;8922;-82
2022/01/09 05:10:13;;;;;;;;;218.00;218.00;;;;;;;;5118372;27;8952;-83
2022/01/09 05:12:38;;;;;;;;;183.00;182.17;;;;;;;;5133762;27;8762;-82
2022/01/09 05:15:05;;;;;;;;;214.40;214.40;;;;;;;;5134907;27;9633;-82
2022/01/09 05:17:33;;;;;;;;;210.25;210.25;;;;;;;;5135011;27;8871;-81
2022/01/09 05:19:59;;;;;;;;;249.50;249.17;;;;;;;;5134126;27;9665;-82
2022/01/09 05:22:25;;;;;;;;;246.20;246.20;;;;;;;;5134811;27;8937;-82
2022/01/09 05:24:51;;;;;;;;;185.00;185.00;;;;;;;;5133554;27;8841;-81
2022/01/09 05:27:16;;;;;;;;;197.00;195.83;;;;;;;;5133544;27;8869;-82
2022/01/09 05:29:44;;;;;;;;;181.60;181.60;;;;;;;;5134635;27;8798;-81
2022/01/09 05:32:12;;;;;;;;;212.20;210.60;;;;;;;;5135008;27;8823;-82
2022/01/09 05:34:38;;;;;;;;;196.17;193.83;;;;;;;;5134831;27;8988;-81
2022/01/09 05:37:06;;;;;;;;;234.20;233.00;;;;;;;;5134283;27;8815;-82
2022/01/09 05:39:32;;;;;;;;;241.80;241.80;;;;;;;;5134864;27;8919;-82
2022/01/09 05:42:00;;;;;;;;;233.83;233.83;;;;;;;;5134288;27;8797;-81
2022/01/09 05:44:25;;;;;;;;;240.50;240.17;;;;;;;;5134567;27;8803;-82
2022/01/09 05:46:54;;;;;;;;;236.20;235.60;;;;;;;;5133816;27;8858;-82
2022/01/09 05:49:22;;;;;;;;;239.83;237.50;;;;;;;;5134501;27;9732;-82
2022/01/09 05:51:47;;;;;;;;;246.33;246.33;;;;;;;;5132469;27;8791;-81
2022/01/09 05:54:12;;;;;;;;;243.00;240.00;;;;;;;;5134619;27;8818;-81
2022/01/09 05:56:40;;;;;;;;;245.60;245.60;;;;;;;;5134176;27;8835;-81
2022/01/09 05:59:06;;;;;;;;;197.40;195.40;;;;;;;;5134525;27;8778;-81
2022/01/09 06:01:35;;;;;;;;;218.40;217.40;;;;;;;;5134520;27;8825;-82
2022/01/09 06:04:03;;;;;;;;;203.20;202.40;;;;;;;;5132445;27;8861;-81
2022/01/09 06:06:28;;;;;;;;;212.83;212.33;;;;;;;;5133993;27;11033;-81
2022/01/09 06:08:54;;;;;;;;;205.20;203.40;;;;;;;;5134000;27;8787;-82
2022/01/09 06:11:21;;;;;;;;;193.60;190.60;;;;;;;;5119368;27;8847;-81
2022/01/09 06:13:50;;;;;;;;;186.50;184.50;;;;;;;;5113676;28;9660;-83
2022/01/09 06:16:15;;;;;;;;;224.40;223.80;;;;;;;;5113459;27;8774;-84
2022/01/09 06:18:43;;;;;;;;;237.40;236.80;;;;;;;;5123701;28;8887;-85
2022/01/09 06:21:09;;;;;;;;;187.20;187.20;;;;;;;;5114126;28;8758;-85
2022/01/09 06:23:34;;;;;;;;;224.20;222.60;;;;;;;;5113621;28;9530;-83
2022/01/09 06:26:02;;;;;;;;;180.80;177.00;;;;;;;;5094841;28;8836;-83
2022/01/09 06:28:27;;;;;;;;;171.20;167.20;;;;;;;;5113731;28;8828;-82
2022/01/09 06:30:52;;;;;;;;;212.67;212.33;;;;;;;;5113330;28;8805;-82
2022/01/09 06:33:17;;;;;;;;;231.75;229.50;;;;;;;;5113478;28;8841;-82
2022/01/09 06:35:44;;;;;;;;;185.50;185.00;;;;;;;;5115702;28;8828;-82
2022/01/09 06:38:09;;;;;;;;;180.20;179.40;;;;;;;;5117053;28;12365;-82
2022/01/09 06:40:34;;;;;;;;;179.50;175.25;;;;;;;;5117054;28;8833;-82
2022/01/09 06:43:00;;;;;;;;;181.50;181.25;;;;;;;;5117046;28;8852;-82
2022/01/09 06:45:27;;;;;;;;;166.83;166.67;;;;;;;;5117145;28;11536;-82
2022/01/09 06:47:58;;;;;;;;;172.40;169.40;;;;;;;;5116882;28;9753;-82
2022/01/09 06:50:31;;;;;;;;;170.00;168.80;;;;;;;;5116745;28;8809;-82
2022/01/09 06:53:00;;;;;;;;;147.60;145.60;;;;;;;;5116834;28;8819;-82
2022/01/09 06:55:28;;;;;;;;;146.40;145.60;;;;;;;;5116776;28;8788;-82
2022/01/09 06:57:56;;;;;;;;;143.50;141.33;;;;;;;;5116673;28;8785;-82
2022/01/09 07:00:22;;;;;;;;;134.67;132.83;;;;;;;;5116801;28;8807;-81
2022/01/09 07:02:47;;;;;;;;;143.60;143.60;;;;;;;;5113109;28;8792;-81
2022/01/09 07:05:15;;;;;;;;;144.00;143.40;;;;;;;;5116580;28;8963;-81
2022/01/09 07:07:41;;;;;;;;;135.60;135.60;;;;;;;;5114669;28;8836;-81
2022/01/09 07:10:10;;;;;;;;;140.20;138.00;;;;;;;;5112279;27;8802;-82
2022/01/09 07:12:37;;;;;;;;;162.60;162.60;;;;;;;;5136840;27;8775;-81
2022/01/09 07:15:03;;;;;;;;;163.00;162.40;;;;;;;;5136689;27;9784;-82
2022/01/09 07:17:29;;;;;;;;;159.20;159.20;;;;;;;;5136239;27;8775;-82
2022/01/09 07:19:56;;;;;;;;;150.25;150.25;;;;;;;;5135698;27;8845;-83
2022/01/09 07:22:24;;;;;;;;;142.60;142.60;;;;;;;;5137580;27;8835;-81
2022/01/09 07:24:50;;;;;;;;;132.80;130.80;;;;;;;;5138466;27;9624;-83
2022/01/09 07:27:18;;;;;;;;;145.20;144.40;;;;;;;;5134753;27;8857;-82
2022/01/09 07:29:43;;;;;;;;;143.75;143.75;;;;;;;;5136434;27;9652;-84
2022/01/09 07:32:08;;;;;;;;;153.80;153.80;;;;;;;;5136875;27;8799;-83
2022/01/09 07:34:34;;;;;;;;;158.00;156.25;;;;;;;;5136881;27;8816;-84
2022/01/09 07:36:59;;;;;;;;;161.80;161.80;;;;;;;;5135953;27;8872;-83
2022/01/09 07:39:24;;;;;;;;;162.75;162.75;;;;;;;;5123750;27;8935;-84
2022/01/09 07:41:52;;;;;;;;;167.75;167.75;;;;;;;;5145527;27;9525;-85
2022/01/09 07:44:18;;;;;;;;;168.20;168.00;;;;;;;;5129750;27;11416;-87
2022/01/09 07:46:45;;;;;;;;;176.20;176.20;;;;;;;;5134612;27;8849;-86
2022/01/09 07:49:11;;;;;;;;;189.40;189.40;;;;;;;;5136466;27;8760;-87
2022/01/09 07:51:36;;;;;;;;;194.80;194.80;;;;;;;;5136322;27;8798;-87
2022/01/09 07:54:04;;;;;;;;;255.40;255.40;;;;;;;;5136500;27;8959;-86
2022/01/09 07:56:29;;;;;;;;;223.40;223.20;;;;;;;;5130670;27;8752;-87
2022/01/09 07:58:55;;;;;;;;;224.40;224.40;;;;;;;;5135078;27;9541;-87
2022/01/09 08:01:20;;;;;;;;;216.20;215.20;;;;;;;;5116955;27;8811;-86
2022/01/09 08:03:45;;;;;;;;;222.00;218.67;;;;;;;;5135467;27;8819;-88
2022/01/09 08:06:11;;;;;;;;;218.80;218.80;;;;;;;;5135384;27;8900;-85
2022/01/09 08:08:36;;;;;;;;;219.00;219.00;;;;;;;;5149591;27;8853;-85
2022/01/09 08:11:01;;;;;;;;;226.00;225.50;;;;;;;;5142061;27;8845;-87
2022/01/09 08:13:27;;;;;;;;;196.00;196.00;;;;;;;;5134471;27;8826;-87
2022/01/09 08:15:52;;;;;;;;;194.75;194.75;;;;;;;;5136168;27;9561;-86
2022/01/09 08:18:17;;;;;;;;;202.60;202.60;;;;;;;;5135718;27;8799;-87
2022/01/09 08:20:43;;;;;;;;;166.75;166.75;;;;;;;;5117065;27;8830;-86
2022/01/09 08:23:08;;;;;;;;;138.40;137.00;;;;;;;;5135972;27;9530;-85
2022/01/09 08:25:36;;;;;;;;;116.75;112.25;;;;;;;;5134267;27;8830;-87
2022/01/09 08:28:05;;;;;;;;;86.80;79.60;;;;;;;;5135140;27;8811;-85
2022/01/09 08:30:30;;;;;;;;;18.00;18.00;;;;;;;;5135878;27;8767;-84
2022/01/09 08:32:55;;;;;;;;;15.50;15.50;;;;;;;;5136039;27;8794;-85
2022/01/09 08:35:21;;;;;;;;;4.50;4.50;;;;;;;;5134840;27;8803;-85
2022/01/09 08:37:47;;;;;;;;;2.00;2.00;;;;;;;;5116821;27;8794;-85
2022/01/09 08:40:17;;;;;;;;;60.80;54.60;;;;;;;;5136609;27;8858;-83
2022/01/09 08:42:45;;;;;;;;;1.25;1.25;;;;;;;;5135422;27;8883;-81
2022/01/09 08:45:19;;;;;;;;;0.50;0.50;;;;;;;;5136250;27;8771;-85
2022/01/09 08:47:47;;;;;;;;;0.00;0.00;;;;;;;;5135577;27;8802;-87
2022/01/09 08:50:18;;;;;;;;;0.00;0.00;;;;;;;;5136019;27;8794;-85
2022/01/09 08:52:43;;;;;;;;;0.00;0.00;;;;;;;;5133103;27;8779;-83
2022/01/09 08:55:09;;;;;;;;;0.00;0.00;;;;;;;;5135834;27;8882;-86
2022/01/09 08:57:35;;;;;;;;;0.00;0.00;;;;;;;;5135899;27;8821;-84
2022/01/09 09:00:04;;;;;;;;;0.00;0.00;;;;;;;;5135855;27;9219;-83
2022/01/09 09:02:29;;;;;;;;;0.00;0.00;;;;;;;;5135816;27;9683;-86
2022/01/09 09:04:55;;;;;;;;;0.00;0.00;;;;;;;;5135392;27;8823;-84
2022/01/09 09:07:24;;;;;;;;;0.00;0.00;;;;;;;;5136330;27;8879;-86
2022/01/09 09:09:50;;;;;;;;;0.00;0.00;;;;;;;;5134899;27;9661;-85
2022/01/09 09:12:15;;;;;;;;;0.00;0.00;;;;;;;;5134561;27;8945;-84
2022/01/09 09:14:46;;;;;;;;;0.00;0.00;;;;;;;;5134985;27;8803;-84
2022/01/09 09:17:11;;;;;;;;;0.00;0.00;;;;;;;;5136000;27;8807;-83
2022/01/09 09:19:37;;;;;;;;;0.00;0.00;;;;;;;;5135513;27;8813;-84
2022/01/09 09:22:04;;;;;;;;;4.50;4.50;;;;;;;;5133801;27;8826;-84
2022/01/09 09:24:30;;;;;;;;;0.00;0.00;;;;;;;;5134993;27;8778;-83
2022/01/09 09:26:55;;;;;;;;;3.00;3.00;;;;;;;;5134737;27;8838;-83
2022/01/09 09:29:23;;;;;;;;;0.00;0.00;;;;;;;;5136008;27;8890;-83
2022/01/09 09:31:58;;;;;;;;;0.00;0.00;;;;;;;;5135501;27;8817;-84
2022/01/09 09:34:23;;;;;;;;;0.00;0.00;;;;;;;;5116824;27;8862;-84
2022/01/09 09:36:52;;;;;;;;;0.00;0.00;;;;;;;;5135430;27;8885;-86
2022/01/09 09:39:17;;;;;;;;;0.00;0.00;;;;;;;;5136014;27;8803;-87
2022/01/09 09:41:46;;;;;;;;;0.00;0.00;;;;;;;;5135391;27;8790;-87
2022/01/09 09:44:13;;;;;;;;;0.00;0.00;;;;;;;;5117195;27;8813;-88
2022/01/09 09:46:39;;;;;;;;;1.25;1.25;;;;;;;;5135493;27;8834;-90
2022/01/09 09:49:05;;;;;;;;;0.00;0.00;;;;;;;;5116741;27;8830;-87
2022/01/09 09:51:33;;;;;;;;;0.00;0.00;;;;;;;;5135541;27;8822;-88
2022/01/09 09:54:02;;;;;;;;;0.00;0.00;;;;;;;;5135472;27;8791;-88
2022/01/09 09:56:27;;;;;;;;;0.00;0.00;;;;;;;;5117620;27;8798;-88
2022/01/09 09:58:56;;;;;;;;;0.00;0.00;;;;;;;;5137557;27;8802;-87
2022/01/09 10:01:30;;;;;;;;;0.00;0.00;;;;;;;;5157188;27;8747;-85
2022/01/09 10:04:00;;;;;;;;;0.00;0.00;;;;;;;;5121881;27;8818;-86
2022/01/09 10:06:46;;;;;;;;;0.00;0.00;;;;;;;;5136205;27;8799;-85
2022/01/09 10:09:13;;;;;;;;;0.00;0.00;;;;;;;;5132397;27;8849;-85
2022/01/09 10:11:53;;;;;;;;;0.00;0.00;;;;;;;;5124323;27;8890;-85
2022/01/09 10:14:22;;;;;;;;;0.00;0.00;;;;;;;;5116719;27;9267;-86
2022/01/09 10:17:06;;;;;;;;;0.00;0.00;;;;;;;;5135301;27;8787;-86
2022/01/09 10:19:47;;;;;;;;;0.00;0.00;;;;;;;;5122370;27;8810;-85
2022/01/09 10:22:24;;;;;;;;;0.00;0.00;;;;;;;;5134084;27;8783;-85
2022/01/09 10:24:50;;;;;;;;;0.00;0.00;;;;;;;;5134152;27;8826;-86
2022/01/09 10:27:27;;;;;;;;;0.00;0.00;;;;;;;;5134946;27;8806;-86
2022/01/09 10:29:54;;;;;;;;;0.00;0.00;;;;;;;;5134058;27;8786;-85
2022/01/09 10:32:20;;;;;;;;;0.00;0.00;;;;;;;;5125391;27;8824;-85
2022/01/09 10:35:03;;;;;;;;;0.00;0.00;;;;;;;;5133935;27;8767;-87
2022/01/09 10:37:28;;;;;;;;;0.00;0.00;;;;;;;;5133929;27;8791;-86
2022/01/09 10:40:00;;;;;;;;;0.00;0.00;;;;;;;;5132776;27;8905;-86
2022/01/09 10:42:28;;;;;;;;;0.00;0.00;;;;;;;;5149616;27;8781;-86
2022/01/09 10:44:54;;;;;;;;;0.00;0.00;;;;;;;;5133958;27;8775;-86
2022/01/09 10:47:34;;;;;;;;;0.00;0.00;;;;;;;;5134422;27;8822;-86
2022/01/09 10:50:02;;;;;;;;;0.00;0.00;;;;;;;;5133788;27;8786;-86
2022/01/09 10:52:48;;;;;;;;;0.00;0.00;;;;;;;;5112635;27;8816;-86
2022/01/09 10:55:13;;;;;;;;;0.00;0.00;;;;;;;;5134337;27;8831;-85
2022/01/09 10:57:40;;;;;;;;;0.00;0.00;;;;;;;;5134748;27;8841;-86
2022/01/09 11:00:11;;;;;;;;;0.00;0.00;;;;;;;;5116338;27;8820;-85
2022/01/09 11:02:37;;;;;;;;;0.00;0.00;;;;;;;;5116031;27;8802;-85
2022/01/09 11:05:02;;;;;;;;;0.00;0.00;;;;;;;;5134171;27;8798;-85
2022/01/09 11:07:28;;;;;;;;;0.00;0.00;;;;;;;;5134454;27;8826;-85
2022/01/09 11:09:56;;;;;;;;;0.00;0.00;;;;;;;;5134594;27;8794;-86
2022/01/09 11:12:23;;;;;;;;;0.00;0.00;;;;;;;;5134566;27;9646;-86
2022/01/09 11:14:49;;;;;;;;;0.00;0.00;;;;;;;;5116215;27;8941;-87
2022/01/09 11:17:22;;;;;;;;;0.00;0.00;;;;;;;;5116140;27;8813;-87
2022/01/09 11:19:55;;;;;;;;;0.00;0.00;;;;;;;;5121644;27;8787;-87
2022/01/09 11:22:26;;;;;;;;;0.00;0.00;;;;;;;;5137871;27;8782;-86
2022/01/09 11:25:13;;;;;;;;;0.00;0.00;;;;;;;;5138707;27;8787;-87
2022/01/09 11:28:04;;;;;;;;;0.00;0.00;;;;;;;;5137977;27;8790;-86
2022/01/09 11:30:41;;;;;;;;;0.00;0.00;;;;;;;;5098438;27;8814;-86
2022/01/09 11:33:06;;;;;;;;;0.00;0.00;;;;;;;;5138515;27;9723;-87
2022/01/09 11:35:31;;;;;;;;;0.00;0.00;;;;;;;;5137286;27;8802;-87
2022/01/09 11:38:06;;;;;;;;;0.00;0.00;;;;;;;;5138454;27;8875;-88
2022/01/09 11:40:34;;;;;;;;;0.00;0.00;;;;;;;;5137690;27;8819;-87
2022/01/09 11:43:04;;;;;;;;;0.00;0.00;;;;;;;;5138076;27;8864;-87
2022/01/09 11:45:40;;;;;;;;;0.00;0.00;;;;;;;;5123854;27;8767;-87
2022/01/09 11:48:08;;;;;;;;;0.00;0.00;;;;;;;;5138231;27;8783;-87
2022/01/09 11:50:34;;;;;;;;;0.00;0.00;;;;;;;;5141072;27;8775;-85
2022/01/09 11:53:00;;;;;;;;;0.00;0.00;;;;;;;;5164343;27;8747;-87
2022/01/09 11:55:41;;;;;;;;;0.00;0.00;;;;;;;;5124965;27;8794;-87
2022/01/09 11:58:10;;;;;;;;;0.00;0.00;;;;;;;;5119310;27;8803;-86
2022/01/09 12:00:42;;;;;;;;;0.00;0.00;;;;;;;;5137373;27;8847;-86
2022/01/09 12:03:30;;;;;;;;;0.00;0.00;;;;;;;;5136689;27;8774;-87
2022/01/09 12:06:05;;;;;;;;;0.00;0.00;;;;;;;;5137124;27;8786;-87
2022/01/09 12:08:52;;;;;;;;;0.00;0.00;;;;;;;;5137275;27;8790;-86
2022/01/09 12:11:20;;;;;;;;;0.00;0.00;;;;;;;;5137370;27;8830;-87
2022/01/09 12:13:47;;;;;;;;;0.00;0.00;;;;;;;;5137184;27;8829;-87
2022/01/09 12:16:51;;;;;;;;;0.00;0.00;;;;;;;;5118739;27;8819;-86
2022/01/09 12:19:37;;;;;;;;;0.00;0.00;;;;;;;;4997296;28;8824;-87
2022/01/09 12:22:02;;;;;;;;;0.00;0.00;;;;;;;;4987960;28;9020;-87
2022/01/09 12:24:42;;;;;;;;;0.00;0.00;;;;;;;;5087448;27;8806;-87
2022/01/09 12:27:27;;;;;;;;;0.00;0.00;;;;;;;;5137129;27;9649;-88
2022/01/09 12:29:52;;;;;;;;;0.00;0.00;;;;;;;;5136912;27;8909;-88
2022/01/09 12:32:36;;;;;;;;;0.00;0.00;;;;;;;;5136764;27;9578;-88
2022/01/09 12:35:14;;;;;;;;;0.00;0.00;;;;;;;;5136571;27;9792;-89
2022/01/09 12:37:49;;;;;;;;;0.00;0.00;;;;;;;;5123690;27;8787;-89
2022/01/09 12:40:19;;;;;;;;;1.75;1.75;;;;;;;;5118395;27;8817;-89
2022/01/09 12:42:51;;;;;;;;;0.00;0.00;;;;;;;;5136587;27;8811;-89
2022/01/09 12:45:26;;;;;;;;;0.00;0.00;;;;;;;;5137202;27;8724;-87
2022/01/09 12:47:52;;;;;;;;;0.00;0.00;;;;;;;;5136238;27;9780;-88
2022/01/09 12:50:38;;;;;;;;;0.00;0.00;;;;;;;;5149840;27;8844;-87
2022/01/09 12:53:17;;;;;;;;;0.00;0.00;;;;;;;;5128133;27;8803;-88
2022/01/09 12:55:52;;;;;;;;;0.00;0.00;;;;;;;;5123416;27;8841;-87
2022/01/09 12:58:23;;;;;;;;;0.00;0.00;;;;;;;;5117718;27;8852;-87
2022/01/09 13:00:51;;;;;;;;;0.00;0.00;;;;;;;;5117567;27;8873;-87
2022/01/09 13:03:20;;;;;;;;;0.00;0.00;;;;;;;;5136475;27;8779;-87
2022/01/09 13:05:55;;;;;;;;;0.00;0.00;;;;;;;;5135879;27;8790;-87
2022/01/09 13:08:20;;;;;;;;;0.00;0.00;;;;;;;;5136328;27;8777;-87
2022/01/09 13:10:54;;;;;;;;;0.00;0.00;;;;;;;;5123822;27;8802;-86
2022/01/09 13:13:25;;;;;;;;;0.00;0.00;;;;;;;;5136396;27;9649;-87
2022/01/09 13:15:53;;;;;;;;;0.00;0.00;;;;;;;;5135547;27;8861;-86
2022/01/09 13:18:33;;;;;;;;;0.00;0.00;;;;;;;;5135965;27;8743;-87
2022/01/09 13:21:10;;;;;;;;;0.00;0.00;;;;;;;;5135375;27;8814;-87
2022/01/09 13:23:48;;;;;;;;;0.00;0.00;;;;;;;;5136230;27;9665;-87
2022/01/09 13:26:17;;;;;;;;;0.00;0.00;;;;;;;;5135862;27;8813;-87
2022/01/09 13:28:46;;;;;;;;;0.00;0.00;;;;;;;;5134108;27;9425;-87
2022/01/09 13:31:12;;;;;;;;;0.00;0.00;;;;;;;;5121155;27;8791;-86
2022/01/09 13:34:07;;;;;;;;;0.00;0.00;;;;;;;;5135911;27;8939;-86
2022/01/09 13:36:38;;;;;;;;;0.00;0.00;;;;;;;;5116446;27;8766;-87
2022/01/09 13:39:06;;;;;;;;;0.00;0.00;;;;;;;;5135222;27;8791;-87
2022/01/09 13:41:36;;;;;;;;;0.00;0.00;;;;;;;;5135977;27;8901;-87
2022/01/09 13:44:05;;;;;;;;;0.00;0.00;;;;;;;;5149042;27;9029;-86
2022/01/09 13:46:30;;;;;;;;;0.00;0.00;;;;;;;;5158784;27;8763;-87
2022/01/09 13:48:58;;;;;;;;;0.00;0.00;;;;;;;;5135192;27;8806;-87
2022/01/09 13:51:40;;;;;;;;;0.00;0.00;;;;;;;;5137140;27;8767;-87
2022/01/09 13:54:07;;;;;;;;;0.00;0.00;;;;;;;;5122852;27;8799;-87
2022/01/09 13:56:32;;;;;;;;;0.00;0.00;;;;;;;;5135248;27;8806;-87
2022/01/09 13:58:58;;;;;;;;;0.00;0.00;;;;;;;;5133485;27;8838;-87
2022/01/09 14:01:54;;;;;;;;;0.00;0.00;;;;;;;;5135537;27;8807;-87
2022/01/09 14:04:21;;;;;;;;;0.00;0.00;;;;;;;;5135068;27;9664;-87
2022/01/09 14:06:59;;;;;;;;;0.00;0.00;;;;;;;;5134895;27;8864;-86
2022/01/09 14:09:28;;;;;;;;;0.00;0.00;;;;;;;;5135604;27;8782;-87
2022/01/09 14:11:58;;;;;;;;;0.00;0.00;;;;;;;;5133513;27;8948;-87
2022/01/09 14:14:30;;;;;;;;;0.00;0.00;;;;;;;;5135416;27;8754;-87
2022/01/09 14:16:59;;;;;;;;;0.00;0.00;;;;;;;;5134972;27;8875;-87
2022/01/09 14:19:42;;;;;;;;;0.00;0.00;;;;;;;;5134978;27;8748;-87
2022/01/09 14:22:07;;;;;;;;;0.00;0.00;;;;;;;;5135138;27;9704;-87
2022/01/09 14:24:35;;;;;;;;;0.00;0.00;;;;;;;;5133749;27;8814;-87
2022/01/09 14:27:04;;;;;;;;;0.00;0.00;;;;;;;;5134822;27;8810;-86
2022/01/09 14:29:39;;;;;;;;;0.00;0.00;;;;;;;;5134968;27;8826;-86
2022/01/09 14:32:17;;;;;;;;;0.00;0.00;;;;;;;;5135001;27;8771;-86
2022/01/09 14:34:43;;;;;;;;;0.00;0.00;;;;;;;;5133050;27;8969;-87
2022/01/09 14:37:12;;;;;;;;;0.00;0.00;;;;;;;;5134936;27;8821;-87
2022/01/09 14:39:38;;;;;;;;;0.00;0.00;;;;;;;;5133641;27;8802;-87
2022/01/09 14:42:06;;;;;;;;;0.00;0.00;;;;;;;;5134550;27;8864;-88